sensor_id;sensor_type;location;lat;lon;timestamp;pressure;altitude;pressure_sealevel;temperature
29701;BMP280;57917;51.380;-0.176;2023-05-07T00:04:31;101118.00;;;14.92
29701;BMP280;57917;51.380;-0.176;2023-05-07T00:10:23;101135.97;;;14.87
29701;BMP280;57917;51.380;-0.176;2023-05-07T00:16:11;101126.38;;;14.86
29701;BMP280;57917;51.380;-0.176;2023-05-07T00:22:00;101131.41;;;14.87
29701;BMP280;57917;51.380;-0.176;2023-05-07T00:27:48;101134.19;;;14.82
29701;BMP280;57917;51.380;-0.176;2023-05-07T00:33:35;101123.72;;;14.72
29701;BMP280;57917;51.380;-0.176;2023-05-07T00:39:25;101114.53;;;14.78
29701;BMP280;57917;51.380;-0.176;2023-05-07T00:45:12;101130.03;;;14.76
29701;BMP280;57917;51.380;-0.176;2023-05-07T00:50:59;101120.72;;;14.74
29701;BMP280;57917;51.380;-0.176;2023-05-07T00:56:47;101110.16;;;14.69
29701;BMP280;57917;51.380;-0.176;2023-05-07T01:02:41;101116.94;;;14.61
29701;BMP280;57917;51.380;-0.176;2023-05-07T01:08:29;101111.19;;;14.54
29701;BMP280;57917;51.380;-0.176;2023-05-07T01:14:20;101112.38;;;14.48
29701;BMP280;57917;51.380;-0.176;2023-05-07T01:20:09;101114.81;;;14.26
29701;BMP280;57917;51.380;-0.176;2023-05-07T01:26:01;101116.66;;;14.30
29701;BMP280;57917;51.380;-0.176;2023-05-07T01:31:54;101115.50;;;14.18
29701;BMP280;57917;51.380;-0.176;2023-05-07T01:37:43;101115.69;;;14.03
29701;BMP280;57917;51.380;-0.176;2023-05-07T01:43:33;101111.50;;;13.78
29701;BMP280;57917;51.380;-0.176;2023-05-07T01:49:21;101116.91;;;13.92
29701;BMP280;57917;51.380;-0.176;2023-05-07T01:55:09;101117.00;;;14.05
29701;BMP280;57917;51.380;-0.176;2023-05-07T02:00:56;101126.63;;;14.20
29701;BMP280;57917;51.380;-0.176;2023-05-07T02:06:43;101134.69;;;14.15
29701;BMP280;57917;51.380;-0.176;2023-05-07T02:12:32;101134.13;;;14.18
29701;BMP280;57917;51.380;-0.176;2023-05-07T02:18:20;101144.69;;;14.23
29701;BMP280;57917;51.380;-0.176;2023-05-07T02:24:07;101128.81;;;14.18
29701;BMP280;57917;51.380;-0.176;2023-05-07T02:29:56;101141.16;;;14.09
29701;BMP280;57917;51.380;-0.176;2023-05-07T02:35:43;101137.66;;;13.95
29701;BMP280;57917;51.380;-0.176;2023-05-07T02:41:35;101136.00;;;13.99
29701;BMP280;57917;51.380;-0.176;2023-05-07T02:47:25;101149.00;;;14.00
29701;BMP280;57917;51.380;-0.176;2023-05-07T02:53:16;101129.69;;;13.90
29701;BMP280;57917;51.380;-0.176;2023-05-07T02:59:03;101143.88;;;14.04
29701;BMP280;57917;51.380;-0.176;2023-05-07T03:04:55;101147.41;;;13.99
29701;BMP280;57917;51.380;-0.176;2023-05-07T03:10:42;101160.25;;;14.16
29701;BMP280;57917;51.380;-0.176;2023-05-07T03:16:29;101158.59;;;14.20
29701;BMP280;57917;51.380;-0.176;2023-05-07T03:22:16;101144.84;;;14.13
29701;BMP280;57917;51.380;-0.176;2023-05-07T03:28:05;101147.28;;;14.09
29701;BMP280;57917;51.380;-0.176;2023-05-07T03:34:00;101167.50;;;14.10
29701;BMP280;57917;51.380;-0.176;2023-05-07T03:39:47;101161.25;;;14.01
29701;BMP280;57917;51.380;-0.176;2023-05-07T03:45:34;101181.31;;;14.12
29701;BMP280;57917;51.380;-0.176;2023-05-07T03:51:30;101173.09;;;14.09
29701;BMP280;57917;51.380;-0.176;2023-05-07T03:57:17;101179.34;;;13.99
29701;BMP280;57917;51.380;-0.176;2023-05-07T04:03:06;101176.31;;;13.87
29701;BMP280;57917;51.380;-0.176;2023-05-07T04:08:53;101181.91;;;13.86
29701;BMP280;57917;51.380;-0.176;2023-05-07T04:14:41;101186.38;;;13.90
29701;BMP280;57917;51.380;-0.176;2023-05-07T04:20:30;101198.06;;;13.94
29701;BMP280;57917;51.380;-0.176;2023-05-07T04:26:21;101214.19;;;14.03
29701;BMP280;57917;51.380;-0.176;2023-05-07T04:32:09;101219.44;;;14.08
29701;BMP280;57917;51.380;-0.176;2023-05-07T04:37:59;101217.75;;;14.17
29701;BMP280;57917;51.380;-0.176;2023-05-07T04:43:49;101229.00;;;14.09
29701;BMP280;57917;51.380;-0.176;2023-05-07T04:49:39;101234.06;;;14.10
29701;BMP280;57917;51.380;-0.176;2023-05-07T04:55:30;101233.16;;;14.20
29701;BMP280;57917;51.380;-0.176;2023-05-07T05:01:17;101231.34;;;14.15
29701;BMP280;57917;51.380;-0.176;2023-05-07T05:07:04;101240.97;;;14.11
29701;BMP280;57917;51.380;-0.176;2023-05-07T05:12:55;101237.47;;;14.16
29701;BMP280;57917;51.380;-0.176;2023-05-07T05:18:43;101239.66;;;14.09
29701;BMP280;57917;51.380;-0.176;2023-05-07T05:24:37;101252.72;;;14.29
29701;BMP280;57917;51.380;-0.176;2023-05-07T05:30:25;101255.34;;;14.34
29701;BMP280;57917;51.380;-0.176;2023-05-07T05:36:12;101263.47;;;14.24
29701;BMP280;57917;51.380;-0.176;2023-05-07T05:42:01;101275.66;;;14.30
29701;BMP280;57917;51.380;-0.176;2023-05-07T05:47:49;101271.13;;;14.30
29701;BMP280;57917;51.380;-0.176;2023-05-07T05:53:37;101278.22;;;14.35
29701;BMP280;57917;51.380;-0.176;2023-05-07T05:59:26;101294.09;;;14.45
29701;BMP280;57917;51.380;-0.176;2023-05-07T06:05:13;101289.34;;;14.42
29701;BMP280;57917;51.380;-0.176;2023-05-07T06:11:05;101298.75;;;14.34
29701;BMP280;57917;51.380;-0.176;2023-05-07T06:16:55;101312.63;;;14.55
29701;BMP280;57917;51.380;-0.176;2023-05-07T06:22:45;101310.50;;;14.52
29701;BMP280;57917;51.380;-0.176;2023-05-07T06:28:36;101309.97;;;14.55
29701;BMP280;57917;51.380;-0.176;2023-05-07T06:34:27;101320.69;;;14.69
29701;BMP280;57917;51.380;-0.176;2023-05-07T06:40:14;101311.28;;;14.76
29701;BMP280;57917;51.380;-0.176;2023-05-07T06:46:03;101326.97;;;14.78
29701;BMP280;57917;51.380;-0.176;2023-05-07T06:51:53;101321.78;;;14.86
29701;BMP280;57917;51.380;-0.176;2023-05-07T06:57:43;101325.34;;;14.95
29701;BMP280;57917;51.380;-0.176;2023-05-07T07:03:33;101316.16;;;15.06
29701;BMP280;57917;51.380;-0.176;2023-05-07T07:09:23;101314.69;;;14.95
29701;BMP280;57917;51.380;-0.176;2023-05-07T07:15:16;101313.50;;;15.06
29701;BMP280;57917;51.380;-0.176;2023-05-07T07:21:05;101319.13;;;15.18
29701;BMP280;57917;51.380;-0.176;2023-05-07T07:26:52;101335.59;;;15.25
29701;BMP280;57917;51.380;-0.176;2023-05-07T07:32:46;101341.34;;;15.32
29701;BMP280;57917;51.380;-0.176;2023-05-07T07:38:37;101336.28;;;15.31
29701;BMP280;57917;51.380;-0.176;2023-05-07T07:44:28;101337.66;;;15.28
29701;BMP280;57917;51.380;-0.176;2023-05-07T07:50:19;101349.69;;;15.44
29701;BMP280;57917;51.380;-0.176;2023-05-07T07:56:26;101345.97;;;15.59
29701;BMP280;57917;51.380;-0.176;2023-05-07T08:02:14;101338.91;;;15.81
29701;BMP280;57917;51.380;-0.176;2023-05-07T08:08:09;101344.72;;;15.83
29701;BMP280;57917;51.380;-0.176;2023-05-07T08:14:01;101351.09;;;16.14
29701;BMP280;57917;51.380;-0.176;2023-05-07T08:19:50;101345.81;;;16.36
29701;BMP280;57917;51.380;-0.176;2023-05-07T08:25:38;101346.75;;;16.68
29701;BMP280;57917;51.380;-0.176;2023-05-07T08:31:26;101355.34;;;16.78
29701;BMP280;57917;51.380;-0.176;2023-05-07T08:37:13;101345.25;;;17.11
29701;BMP280;57917;51.380;-0.176;2023-05-07T08:43:01;101352.88;;;17.26
29701;BMP280;57917;51.380;-0.176;2023-05-07T08:48:49;101348.75;;;17.72
29701;BMP280;57917;51.380;-0.176;2023-05-07T08:54:38;101346.28;;;17.93
29701;BMP280;57917;51.380;-0.176;2023-05-07T09:00:28;101343.38;;;18.11
29701;BMP280;57917;51.380;-0.176;2023-05-07T09:06:17;101347.38;;;18.65
29701;BMP280;57917;51.380;-0.176;2023-05-07T09:12:07;101344.09;;;19.02
29701;BMP280;57917;51.380;-0.176;2023-05-07T09:17:59;101350.66;;;19.22
29701;BMP280;57917;51.380;-0.176;2023-05-07T09:23:54;101357.81;;;18.84
29701;BMP280;57917;51.380;-0.176;2023-05-07T09:29:45;101358.13;;;18.82
29701;BMP280;57917;51.380;-0.176;2023-05-07T09:35:35;101367.28;;;18.55
29701;BMP280;57917;51.380;-0.176;2023-05-07T09:41:30;101381.09;;;18.15
29701;BMP280;57917;51.380;-0.176;2023-05-07T09:47:32;101388.28;;;18.06
29701;BMP280;57917;51.380;-0.176;2023-05-07T09:53:22;101393.50;;;18.11
29701;BMP280;57917;51.380;-0.176;2023-05-07T09:59:13;101400.44;;;18.12
29701;BMP280;57917;51.380;-0.176;2023-05-07T10:05:01;101393.44;;;18.41
29701;BMP280;57917;51.380;-0.176;2023-05-07T10:10:52;101395.38;;;18.75
29701;BMP280;57917;51.380;-0.176;2023-05-07T10:16:42;101404.84;;;19.07
29701;BMP280;57917;51.380;-0.176;2023-05-07T10:22:40;101414.31;;;18.87
29701;BMP280;57917;51.380;-0.176;2023-05-07T10:28:43;101407.59;;;18.42
29701;BMP280;57917;51.380;-0.176;2023-05-07T10:34:43;101424.91;;;18.27
29701;BMP280;57917;51.380;-0.176;2023-05-07T10:40:33;101414.44;;;18.65
29701;BMP280;57917;51.380;-0.176;2023-05-07T10:46:22;101420.94;;;18.81
29701;BMP280;57917;51.380;-0.176;2023-05-07T10:52:27;101423.47;;;19.03
29701;BMP280;57917;51.380;-0.176;2023-05-07T10:58:30;101427.91;;;19.25
29701;BMP280;57917;51.380;-0.176;2023-05-07T11:04:42;101435.75;;;19.21
29701;BMP280;57917;51.380;-0.176;2023-05-07T11:17:02;101448.88;;;19.94
29701;BMP280;57917;51.380;-0.176;2023-05-07T11:22:51;101442.66;;;20.31
29701;BMP280;57917;51.380;-0.176;2023-05-07T11:29:12;101464.84;;;20.28
29701;BMP280;57917;51.380;-0.176;2023-05-07T11:35:01;101460.66;;;20.10
29701;BMP280;57917;51.380;-0.176;2023-05-07T11:40:53;101466.81;;;19.65
29701;BMP280;57917;51.380;-0.176;2023-05-07T11:46:44;101477.25;;;20.12
29701;BMP280;57917;51.380;-0.176;2023-05-07T11:52:37;101488.00;;;20.12
29701;BMP280;57917;51.380;-0.176;2023-05-07T11:58:26;101470.34;;;20.32
29701;BMP280;57917;51.380;-0.176;2023-05-07T12:04:13;101470.78;;;20.71
29701;BMP280;57917;51.380;-0.176;2023-05-07T12:10:04;101457.78;;;21.26
29701;BMP280;57917;51.380;-0.176;2023-05-07T12:15:54;101468.59;;;21.38
29701;BMP280;57917;51.380;-0.176;2023-05-07T12:21:43;101468.31;;;21.19
29701;BMP280;57917;51.380;-0.176;2023-05-07T12:27:37;101473.16;;;21.70
29701;BMP280;57917;51.380;-0.176;2023-05-07T12:33:26;101474.59;;;21.68
29701;BMP280;57917;51.380;-0.176;2023-05-07T12:39:14;101482.06;;;21.38
29701;BMP280;57917;51.380;-0.176;2023-05-07T12:45:11;101471.16;;;21.67
29701;BMP280;57917;51.380;-0.176;2023-05-07T12:51:00;101477.56;;;21.87
29701;BMP280;57917;51.380;-0.176;2023-05-07T12:56:47;101460.50;;;22.07
29701;BMP280;57917;51.380;-0.176;2023-05-07T13:02:42;101480.16;;;22.20
29701;BMP280;57917;51.380;-0.176;2023-05-07T13:08:37;101477.66;;;22.27
29701;BMP280;57917;51.380;-0.176;2023-05-07T13:14:28;101488.91;;;22.29
29701;BMP280;57917;51.380;-0.176;2023-05-07T13:20:15;101483.09;;;22.02
29701;BMP280;57917;51.380;-0.176;2023-05-07T13:26:04;101482.00;;;21.26
29701;BMP280;57917;51.380;-0.176;2023-05-07T13:32:12;101484.75;;;21.71
29701;BMP280;57917;51.380;-0.176;2023-05-07T13:37:59;101499.19;;;21.54
29701;BMP280;57917;51.380;-0.176;2023-05-07T13:43:48;101500.47;;;21.93
29701;BMP280;57917;51.380;-0.176;2023-05-07T13:49:36;101498.41;;;21.66
29701;BMP280;57917;51.380;-0.176;2023-05-07T13:55:28;101510.00;;;21.66
29701;BMP280;57917;51.380;-0.176;2023-05-07T14:01:16;101512.59;;;21.75
29701;BMP280;57917;51.380;-0.176;2023-05-07T14:07:04;101503.44;;;21.55
29701;BMP280;57917;51.380;-0.176;2023-05-07T14:12:51;101508.75;;;21.31
29701;BMP280;57917;51.380;-0.176;2023-05-07T14:18:42;101510.59;;;20.78
29701;BMP280;57917;51.380;-0.176;2023-05-07T14:24:30;101499.25;;;20.72
29701;BMP280;57917;51.380;-0.176;2023-05-07T14:30:27;101488.81;;;20.91
29701;BMP280;57917;51.380;-0.176;2023-05-07T14:36:15;101495.22;;;20.29
29701;BMP280;57917;51.380;-0.176;2023-05-07T14:42:13;101505.84;;;20.25
29701;BMP280;57917;51.380;-0.176;2023-05-07T14:48:03;101485.03;;;20.92
29701;BMP280;57917;51.380;-0.176;2023-05-07T14:53:51;101486.41;;;21.31
29701;BMP280;57917;51.380;-0.176;2023-05-07T14:59:39;101493.47;;;21.23
29701;BMP280;57917;51.380;-0.176;2023-05-07T15:05:29;101494.28;;;21.80
29701;BMP280;57917;51.380;-0.176;2023-05-07T15:11:17;101479.50;;;21.86
29701;BMP280;57917;51.380;-0.176;2023-05-07T15:17:04;101486.16;;;21.68
29701;BMP280;57917;51.380;-0.176;2023-05-07T15:22:52;101481.22;;;21.58
29701;BMP280;57917;51.380;-0.176;2023-05-07T15:28:39;101463.16;;;21.59
29701;BMP280;57917;51.380;-0.176;2023-05-07T15:34:29;101477.81;;;21.82
29701;BMP280;57917;51.380;-0.176;2023-05-07T15:40:18;101479.00;;;21.72
29701;BMP280;57917;51.380;-0.176;2023-05-07T15:46:05;101464.69;;;21.60
29701;BMP280;57917;51.380;-0.176;2023-05-07T15:51:53;101475.13;;;21.49
29701;BMP280;57917;51.380;-0.176;2023-05-07T15:57:41;101476.91;;;21.78
29701;BMP280;57917;51.380;-0.176;2023-05-07T16:03:28;101481.22;;;21.58
29701;BMP280;57917;51.380;-0.176;2023-05-07T16:09:15;101473.97;;;21.71
29701;BMP280;57917;51.380;-0.176;2023-05-07T16:15:02;101475.94;;;21.62
29701;BMP280;57917;51.380;-0.176;2023-05-07T16:20:50;101480.34;;;21.66
29701;BMP280;57917;51.380;-0.176;2023-05-07T16:26:39;101472.50;;;21.73
29701;BMP280;57917;51.380;-0.176;2023-05-07T16:32:26;101475.47;;;21.60
29701;BMP280;57917;51.380;-0.176;2023-05-07T16:38:14;101485.53;;;21.71
29701;BMP280;57917;51.380;-0.176;2023-05-07T16:44:04;101487.50;;;21.50
29701;BMP280;57917;51.380;-0.176;2023-05-07T16:49:53;101498.31;;;21.74
29701;BMP280;57917;51.380;-0.176;2023-05-07T16:55:41;101504.88;;;21.85
29701;BMP280;57917;51.380;-0.176;2023-05-07T17:01:31;101494.84;;;21.74
29701;BMP280;57917;51.380;-0.176;2023-05-07T17:07:29;101499.28;;;21.58
29701;BMP280;57917;51.380;-0.176;2023-05-07T17:13:16;101487.81;;;21.49
29701;BMP280;57917;51.380;-0.176;2023-05-07T17:19:05;101488.53;;;21.25
29701;BMP280;57917;51.380;-0.176;2023-05-07T17:24:53;101498.66;;;21.08
29701;BMP280;57917;51.380;-0.176;2023-05-07T17:30:45;101499.03;;;21.18
29701;BMP280;57917;51.380;-0.176;2023-05-07T17:36:33;101495.47;;;21.26
29701;BMP280;57917;51.380;-0.176;2023-05-07T17:42:30;101500.81;;;21.14
29701;BMP280;57917;51.380;-0.176;2023-05-07T17:48:19;101490.81;;;21.35
29701;BMP280;57917;51.380;-0.176;2023-05-07T17:54:06;101499.94;;;21.22
29701;BMP280;57917;51.380;-0.176;2023-05-07T17:59:56;101506.19;;;21.14
29701;BMP280;57917;51.380;-0.176;2023-05-07T18:05:48;101515.88;;;20.95
29701;BMP280;57917;51.380;-0.176;2023-05-07T18:11:40;101517.34;;;20.92
29701;BMP280;57917;51.380;-0.176;2023-05-07T18:17:30;101512.31;;;20.82
29701;BMP280;57917;51.380;-0.176;2023-05-07T18:23:19;101522.00;;;20.54
29701;BMP280;57917;51.380;-0.176;2023-05-07T18:29:11;101519.34;;;20.46
29701;BMP280;57917;51.380;-0.176;2023-05-07T18:35:03;101538.03;;;20.42
29701;BMP280;57917;51.380;-0.176;2023-05-07T18:40:50;101554.13;;;20.13
29701;BMP280;57917;51.380;-0.176;2023-05-07T18:46:44;101561.41;;;20.04
29701;BMP280;57917;51.380;-0.176;2023-05-07T18:52:39;101557.53;;;19.93
29701;BMP280;57917;51.380;-0.176;2023-05-07T18:58:30;101558.94;;;19.82
29701;BMP280;57917;51.380;-0.176;2023-05-07T19:04:18;101576.81;;;19.61
29701;BMP280;57917;51.380;-0.176;2023-05-07T19:10:09;101564.50;;;19.60
29701;BMP280;57917;51.380;-0.176;2023-05-07T19:15:57;101582.81;;;19.24
29701;BMP280;57917;51.380;-0.176;2023-05-07T19:21:47;101597.50;;;19.35
29701;BMP280;57917;51.380;-0.176;2023-05-07T19:28:17;101585.16;;;19.34
29701;BMP280;57917;51.380;-0.176;2023-05-07T19:42:46;101604.75;;;19.26
29701;BMP280;57917;51.380;-0.176;2023-05-07T19:48:46;101606.75;;;19.04
29701;BMP280;57917;51.380;-0.176;2023-05-07T19:54:55;101613.81;;;18.91
29701;BMP280;57917;51.380;-0.176;2023-05-07T20:00:43;101624.38;;;18.79
29701;BMP280;57917;51.380;-0.176;2023-05-07T20:06:33;101634.84;;;18.67
29701;BMP280;57917;51.380;-0.176;2023-05-07T20:12:23;101646.59;;;18.49
29701;BMP280;57917;51.380;-0.176;2023-05-07T20:18:14;101650.13;;;18.36
29701;BMP280;57917;51.380;-0.176;2023-05-07T20:24:04;101660.53;;;18.29
29701;BMP280;57917;51.380;-0.176;2023-05-07T20:29:52;101663.19;;;18.07
29701;BMP280;57917;51.380;-0.176;2023-05-07T20:35:40;101671.13;;;17.98
29701;BMP280;57917;51.380;-0.176;2023-05-07T20:41:32;101674.22;;;17.56
29701;BMP280;57917;51.380;-0.176;2023-05-07T20:47:24;101682.75;;;17.45
29701;BMP280;57917;51.380;-0.176;2023-05-07T20:53:12;101686.31;;;17.27
29701;BMP280;57917;51.380;-0.176;2023-05-07T20:59:02;101696.81;;;17.10
29701;BMP280;57917;51.380;-0.176;2023-05-07T21:04:50;101708.09;;;16.93
29701;BMP280;57917;51.380;-0.176;2023-05-07T21:10:39;101697.09;;;16.81
29701;BMP280;57917;51.380;-0.176;2023-05-07T21:16:31;101705.28;;;16.85
29701;BMP280;57917;51.380;-0.176;2023-05-07T21:22:27;101707.06;;;16.76
29701;BMP280;57917;51.380;-0.176;2023-05-07T21:28:17;101720.03;;;16.50
29701;BMP280;57917;51.380;-0.176;2023-05-07T21:34:05;101727.25;;;16.31
29701;BMP280;57917;51.380;-0.176;2023-05-07T21:39:55;101744.66;;;16.28
29701;BMP280;57917;51.380;-0.176;2023-05-07T21:45:43;101747.09;;;16.30
29701;BMP280;57917;51.380;-0.176;2023-05-07T21:51:31;101741.75;;;16.25
29701;BMP280;57917;51.380;-0.176;2023-05-07T21:57:24;101745.63;;;16.19
29701;BMP280;57917;51.380;-0.176;2023-05-07T22:03:12;101746.09;;;16.21
29701;BMP280;57917;51.380;-0.176;2023-05-07T22:09:03;101754.94;;;16.21
29701;BMP280;57917;51.380;-0.176;2023-05-07T22:15:40;101755.50;;;16.18
29701;BMP280;57917;51.380;-0.176;2023-05-07T22:22:12;101756.84;;;16.16
29701;BMP280;57917;51.380;-0.176;2023-05-07T22:28:42;101766.94;;;16.00
29701;BMP280;57917;51.380;-0.176;2023-05-07T22:34:36;101762.97;;;15.98
29701;BMP280;57917;51.380;-0.176;2023-05-07T22:40:28;101766.63;;;16.07
29701;BMP280;57917;51.380;-0.176;2023-05-07T22:46:15;101772.38;;;16.14
29701;BMP280;57917;51.380;-0.176;2023-05-07T22:52:04;101770.13;;;16.02
29701;BMP280;57917;51.380;-0.176;2023-05-07T22:57:51;101770.19;;;15.97
29701;BMP280;57917;51.380;-0.176;2023-05-07T23:03:38;101768.25;;;15.79
29701;BMP280;57917;51.380;-0.176;2023-05-07T23:09:25;101769.53;;;15.63
29701;BMP280;57917;51.380;-0.176;2023-05-07T23:15:15;101769.34;;;15.55
29701;BMP280;57917;51.380;-0.176;2023-05-07T23:21:04;101766.53;;;15.41
29701;BMP280;57917;51.380;-0.176;2023-05-07T23:26:55;101775.88;;;15.39
29701;BMP280;57917;51.380;-0.176;2023-05-07T23:32:42;101770.84;;;15.37
29701;BMP280;57917;51.380;-0.176;2023-05-07T23:38:31;101769.72;;;15.43
29701;BMP280;57917;51.380;-0.176;2023-05-07T23:44:18;101763.81;;;15.46
29701;BMP280;57917;51.380;-0.176;2023-05-07T23:50:08;101759.00;;;15.48
29701;BMP280;57917;51.380;-0.176;2023-05-07T23:56:06;101762.84;;;15.37
